createdAt,value
2022-12-08T00:00:10.010Z,100032.63
2022-12-08T00:05:11.506Z,100025.75
2022-12-08T00:10:40.267Z,100029.41
2022-12-08T00:15:34.325Z,100024.69
2022-12-08T00:20:35.762Z,100012.75
2022-12-08T00:25:37.237Z,100012.13
2022-12-08T00:30:43.039Z,100015.25
2022-12-08T00:35:44.475Z,100015.13
2022-12-08T00:40:47.400Z,100008.53
2022-12-08T00:45:48.895Z,100008.97
2022-12-08T00:50:50.420Z,100000.06
2022-12-08T00:55:51.874Z,99992.53
2022-12-08T01:00:53.401Z,99991.16
2022-12-08T01:05:54.811Z,99990.94
2022-12-08T01:10:56.276Z,99993.44
2022-12-08T01:15:57.792Z,99989.66
2022-12-08T01:21:04.839Z,99983.31
2022-12-08T01:26:08.688Z,99991.16
2022-12-08T01:31:20.050Z,99975.31
2022-12-08T01:36:25.096Z,99971.03
2022-12-08T01:41:29.442Z,99972.31
2022-12-08T01:46:33.258Z,99986.13
2022-12-08T01:51:42.229Z,99978.34
2022-12-08T01:56:55.260Z,99977.53
2022-12-08T02:01:57.950Z,99976.06
2022-12-08T02:07:03.601Z,99970.50
2022-12-08T02:12:09.383Z,99966.41
2022-12-08T02:17:13.698Z,99960.78
2022-12-08T02:22:24.229Z,99955.44
2022-12-08T02:28:01.450Z,99951.75
2022-12-08T02:33:41.842Z,99938.44
2022-12-08T02:39:24.914Z,99935.34
2022-12-08T02:44:33.696Z,99932.59
2022-12-08T02:49:36.375Z,99925.38
2022-12-08T02:54:41.558Z,99912.97
2022-12-08T03:00:07.110Z,99917.00
2022-12-08T03:05:38.771Z,99899.84
2022-12-08T03:10:51.330Z,99901.31
2022-12-08T03:15:54.839Z,99895.25
2022-12-08T03:20:56.319Z,99891.56
2022-12-08T03:26:08.452Z,99890.00
2022-12-08T03:31:12.947Z,99884.03
2022-12-08T03:36:15.247Z,99877.81
2022-12-08T03:41:16.687Z,99873.69
2022-12-08T03:51:22.224Z,99848.53
2022-12-08T03:56:32.989Z,99852.00
2022-12-08T04:01:34.618Z,99853.03
2022-12-08T04:06:36.144Z,99847.06
2022-12-08T04:11:37.667Z,99844.47
2022-12-08T04:16:42.184Z,99839.00
2022-12-08T04:21:43.920Z,99840.19
2022-12-08T04:26:45.435Z,99842.81
2022-12-08T04:31:47.052Z,99841.44
2022-12-08T04:36:48.529Z,99842.66
2022-12-08T04:41:49.916Z,99835.97
2022-12-08T04:46:51.439Z,99838.69
2022-12-08T04:51:53.001Z,99826.44
2022-12-08T04:56:54.616Z,99818.34
2022-12-08T05:01:56.211Z,99822.31
2022-12-08T05:06:57.925Z,99817.78
2022-12-08T05:11:59.349Z,99818.03
2022-12-08T05:17:04.839Z,99826.19
2022-12-08T05:22:09.439Z,99810.06
2022-12-08T05:27:10.996Z,99810.44
2022-12-08T05:32:12.455Z,99815.13
2022-12-08T05:37:14.054Z,99811.50
2022-12-08T05:42:17.436Z,99806.41
2022-12-08T05:47:21.982Z,99801.50
2022-12-08T05:52:23.536Z,99802.78
2022-12-08T05:57:25.202Z,99799.44
2022-12-08T06:02:27.003Z,99799.97
2022-12-08T06:07:28.636Z,99793.75
2022-12-08T06:12:30.316Z,99795.75
2022-12-08T06:17:31.766Z,99790.97
2022-12-08T06:22:33.278Z,99794.56
2022-12-08T06:27:34.831Z,99793.91
2022-12-08T06:32:36.775Z,99797.19
2022-12-08T06:37:38.409Z,99806.63
2022-12-08T06:42:39.848Z,99805.13
2022-12-08T06:47:41.523Z,99806.25
2022-12-08T06:52:54.326Z,99804.19
2022-12-08T06:58:02.353Z,99807.97
2022-12-08T07:03:03.928Z,99807.75
2022-12-08T07:08:09.718Z,99808.09
2022-12-08T07:13:11.247Z,99809.88
2022-12-08T07:18:12.801Z,99819.84
2022-12-08T07:23:14.705Z,99815.13
2022-12-08T07:28:16.264Z,99812.78
2022-12-08T07:33:17.732Z,99815.03
2022-12-08T07:38:19.200Z,99813.09
2022-12-08T07:43:22.244Z,99805.69
2022-12-08T07:48:23.662Z,99804.19
2022-12-08T07:53:25.107Z,99807.84
2022-12-08T07:58:27.665Z,99800.22
2022-12-08T08:03:29.197Z,99806.09
2022-12-08T08:08:31.778Z,99806.47
2022-12-08T08:13:33.365Z,99805.69
2022-12-08T08:18:36.116Z,99807.84
2022-12-08T08:23:37.589Z,99800.56
2022-12-08T08:28:39.213Z,99806.53
2022-12-08T08:33:40.762Z,99804.41
2022-12-08T08:38:42.232Z,99803.13
2022-12-08T08:43:43.739Z,99808.97
2022-12-08T08:48:45.348Z,99813.59
2022-12-08T08:53:46.858Z,99808.53
2022-12-08T08:58:52.971Z,99799.28
2022-12-08T09:03:55.410Z,99802.09
2022-12-08T09:08:57.084Z,99794.97
2022-12-08T09:13:58.545Z,99794.75
2022-12-08T09:19:00.100Z,99795.59
2022-12-08T09:24:01.554Z,99792.97
2022-12-08T09:29:03.076Z,99786.34
2022-12-08T09:34:04.877Z,99783.34
2022-12-08T09:39:07.252Z,99782.38
2022-12-08T09:44:39.448Z,99788.13
2022-12-08T09:49:45.620Z,99792.34
2022-12-08T09:54:47.246Z,99791.94
2022-12-08T09:59:55.495Z,99781.56
2022-12-08T10:04:58.885Z,99776.09
2022-12-08T10:10:22.800Z,99778.38
2022-12-08T10:15:30.405Z,99764.69
2022-12-08T10:20:41.591Z,99767.28
2022-12-08T10:25:54.309Z,99768.94
2022-12-08T10:30:55.945Z,99756.47
2022-12-08T10:35:59.412Z,99752.03
2022-12-08T10:41:06.549Z,99743.69
2022-12-08T10:46:21.493Z,99747.03
2022-12-08T10:51:36.489Z,99733.06
2022-12-08T10:56:52.866Z,99733.44
2022-12-08T11:01:56.562Z,99726.03
2022-12-08T11:06:58.169Z,99719.72
2022-12-08T11:12:07.160Z,99711.38
2022-12-08T11:17:16.433Z,99709.47
2022-12-08T11:22:57.403Z,99707.88
2022-12-08T11:28:01.233Z,99694.31
2022-12-08T11:33:38.116Z,99676.28
2022-12-08T11:38:44.114Z,99681.75
2022-12-08T11:43:58.596Z,99679.50
2022-12-08T11:49:06.761Z,99672.31
2022-12-08T11:54:25.211Z,99675.78
2022-12-08T11:59:32.147Z,99679.28
2022-12-08T12:04:56.584Z,99669.56
2022-12-08T12:10:10.625Z,99671.50
2022-12-08T12:15:33.069Z,99659.81
2022-12-08T12:20:50.928Z,99661.34
2022-12-08T12:25:59.700Z,99650.34
2022-12-08T12:31:06.379Z,99640.69
2022-12-08T12:36:10.600Z,99643.66
2022-12-08T12:41:14.594Z,99641.44
2022-12-08T12:46:25.388Z,99640.44
2022-12-08T12:51:39.185Z,99635.47
2022-12-08T12:56:54.905Z,99634.50
2022-12-08T13:01:56.968Z,99630.78
2022-12-08T13:06:59.205Z,99622.47
2022-12-08T13:12:12.356Z,99625.53
2022-12-08T13:17:27.406Z,99616.91
2022-12-08T13:22:53.893Z,99616.47
2022-12-08T13:27:55.377Z,99616.97
2022-12-08T13:33:18.254Z,99609.53
2022-12-08T13:38:26.282Z,99604.75
2022-12-08T13:44:31.192Z,99605.00
2022-12-08T14:00:15.030Z,99600.50
2022-12-08T14:05:34.865Z,99597.50
2022-12-08T14:10:40.985Z,99614.84
2022-12-08T14:15:42.597Z,99606.13
2022-12-08T14:21:19.016Z,99609.59
2022-12-08T14:26:06.328Z,99607.00
2022-12-08T14:31:08.443Z,99617.59
2022-12-08T14:36:11.112Z,99617.75
2022-12-08T14:41:12.576Z,99619.81
2022-12-08T14:46:22.566Z,99622.28
2022-12-08T14:51:30.365Z,99624.91
2022-12-08T14:56:33.755Z,99621.56
2022-12-08T15:01:37.046Z,99619.81
2022-12-08T15:07:06.501Z,99621.72
2022-12-08T15:12:14.052Z,99630.28
2022-12-08T15:17:49.419Z,99639.56
2022-12-08T15:22:51.772Z,99630.88
2022-12-08T15:27:53.352Z,99633.00
2022-12-08T15:32:54.830Z,99635.50
2022-12-08T15:37:56.714Z,99641.47
2022-12-08T15:42:58.211Z,99635.84
2022-12-08T15:47:59.715Z,99632.28
2022-12-08T15:53:01.283Z,99634.06
2022-12-08T15:58:52.452Z,99633.84
2022-12-08T16:09:00.698Z,99633.59
2022-12-08T16:14:47.413Z,99624.78
2022-12-08T16:19:33.800Z,99617.38
2022-12-08T16:24:35.294Z,99624.88
2022-12-08T16:29:36.679Z,99617.03
2022-12-08T16:34:38.242Z,99620.50
2022-12-08T16:39:45.421Z,99623.69
2022-12-08T16:44:47.288Z,99617.00
2022-12-08T16:49:48.720Z,99609.38
2022-12-08T16:54:50.136Z,99614.13
2022-12-08T16:59:51.686Z,99603.75
2022-12-08T17:04:53.198Z,99603.66
2022-12-08T17:09:54.867Z,99607.81
2022-12-08T17:14:56.299Z,99612.69
2022-12-08T17:19:57.832Z,99615.31
2022-12-08T17:25:00.188Z,99619.09
2022-12-08T17:30:01.681Z,99614.59
2022-12-08T17:35:03.886Z,99619.13
2022-12-08T17:40:06.556Z,99618.50
2022-12-08T17:45:09.043Z,99610.53
2022-12-08T17:50:10.681Z,99611.84
2022-12-08T17:55:12.164Z,99599.94
2022-12-08T18:00:14.120Z,99599.22
2022-12-08T18:05:15.644Z,99600.19
2022-12-08T18:10:18.092Z,99599.13
2022-12-08T18:15:20.378Z,99593.16
2022-12-08T18:20:22.036Z,99603.75
2022-12-08T18:25:23.497Z,99613.13
2022-12-08T18:30:24.992Z,99602.09
2022-12-08T18:35:26.475Z,99603.81
2022-12-08T18:40:28.500Z,99608.31
2022-12-08T18:45:29.972Z,99610.94
2022-12-08T18:50:31.405Z,99616.06
2022-12-08T18:55:32.908Z,99605.59
2022-12-08T19:00:34.352Z,99615.84
2022-12-08T19:05:35.853Z,99612.50
2022-12-08T19:10:38.222Z,99613.34
2022-12-08T19:15:39.724Z,99614.72
2022-12-08T19:20:41.296Z,99612.25
2022-12-08T19:25:42.747Z,99614.53
2022-12-08T19:30:44.360Z,99611.34
2022-12-08T19:35:52.068Z,99610.41
2022-12-08T19:40:54.073Z,99604.47
2022-12-08T19:45:55.723Z,99607.63
2022-12-08T19:50:57.548Z,99609.03
2022-12-08T19:55:59.070Z,99612.81
2022-12-08T20:01:00.527Z,99610.81
2022-12-08T20:06:02.029Z,99605.84
2022-12-08T20:11:03.520Z,99599.28
2022-12-08T20:16:05.440Z,99590.34
2022-12-08T20:21:07.755Z,99597.13
2022-12-08T20:26:13.152Z,99597.84
2022-12-08T20:31:23.450Z,99598.25
2022-12-08T20:36:25.050Z,99590.53
2022-12-08T20:41:26.457Z,99588.03
2022-12-08T20:46:27.980Z,99592.28
2022-12-08T20:51:32.186Z,99596.25
2022-12-08T20:56:33.865Z,99596.97
2022-12-08T21:01:35.500Z,99598.44
2022-12-08T21:06:36.992Z,99604.69
2022-12-08T21:11:38.536Z,99607.22
2022-12-08T21:16:40.251Z,99594.84
2022-12-08T21:21:41.913Z,99601.53
2022-12-08T21:26:43.646Z,99600.03
2022-12-08T21:31:45.432Z,99604.41
2022-12-08T21:36:47.011Z,99609.31
2022-12-08T21:41:48.643Z,99607.88
2022-12-08T21:46:50.343Z,99604.41
2022-12-08T21:51:51.916Z,99601.75
2022-12-08T21:56:53.515Z,99592.66
2022-12-08T22:01:55.244Z,99599.94
2022-12-08T22:06:57.124Z,99609.75
2022-12-08T22:11:58.724Z,99607.22
2022-12-08T22:17:00.325Z,99608.94
2022-12-08T22:22:02.385Z,99611.25
2022-12-08T22:27:03.968Z,99609.97
2022-12-08T22:32:05.871Z,99609.66
2022-12-08T22:37:07.356Z,99601.63
2022-12-08T22:42:08.995Z,99605.53
2022-12-08T22:47:10.511Z,99602.81
2022-12-08T22:52:12.067Z,99596.72
2022-12-08T22:57:13.585Z,99590.66
2022-12-08T23:02:15.163Z,99588.31
2022-12-08T23:07:16.748Z,99587.22
2022-12-08T23:12:18.303Z,99581.19
2022-12-08T23:17:19.751Z,99583.81
2022-12-08T23:22:21.592Z,99578.31
2022-12-08T23:27:23.349Z,99576.69
2022-12-08T23:32:24.930Z,99579.41
2022-12-08T23:37:28.502Z,99570.47
2022-12-08T23:42:30.134Z,99573.91
2022-12-08T23:47:31.664Z,99563.13
2022-12-08T23:52:33.248Z,99558.28
2022-12-08T23:57:35.817Z,99552.56
